This is the latest recevied weather packets stored in our database for station/object WA5KWK. If no packets are shown the sender has not sent any weather packets the latest 10 day(s).
| Time | Temp. | Humidity | Pressure | Rain* | Wind** | Luminosity | Snow |
|---|---|---|---|---|---|---|---|
| 1777634405 | 15° C | 61% | 1013.3 hPa | 0 mm | - | 0 W/m² | - |
| 1777634104 | 15° C | 63% | 1013.3 hPa | 0 mm | - | 0 W/m² | - |
| 1777633805 | 15° C | 64% | 1013.4 hPa | 0 mm | - | 0 W/m² | - |
| 1777631105 | 14.44° C | 69% | 1013.2 hPa | 0 mm | - | 0 W/m² | - |
| 1777629604 | 14.44° C | 69% | 1013.4 hPa | 0 mm | - | 0 W/m² | - |
| 1777629004 | 15° C | 67% | 1013.4 hPa | 0 mm | - | 0 W/m² | - |
| 1777628105 | 14.44° C | 68% | 1013.4 hPa | 0 mm | - | 0 W/m² | - |
| 1777622705 | 13.33° C | 73% | 1013.5 hPa | 0 mm | - | 0 W/m² | - |
| 1777620610 | 13.33° C | 75% | 1013.4 hPa | 0 mm | - | 0 W/m² | - |
| 1777618504 | 13.33° C | 76% | 1013.5 hPa | 0 mm | - | 0 W/m² | - |
| 1777616704 | 14.44° C | 76% | 1013.5 hPa | 0 mm | - | 0 W/m² | - |
| 1777614004 | 15° C | 74% | 1013.9 hPa | 0 mm | - | 0 W/m² | - |
| 1777612204 | 15° C | 75% | 1013.9 hPa | 0 mm | - | 0 W/m² | - |
| 1777611604 | 15.56° C | 75% | 1013.9 hPa | 0 mm | - | 0 W/m² | - |
| 1777606804 | 17.22° C | 70% | 1013.3 hPa | 0 mm | - | 0 W/m² | - |
| 1777606204 | 17.22° C | 68% | 1013.3 hPa | 0 mm | - | 0 W/m² | - |
| 1777603205 | 19.44° C | 61% | 1013.2 hPa | 0 mm | - | 11 W/m² | - |
| 1777600804 | 21.11° C | 55% | 1013.2 hPa | 0 mm | - | 84 W/m² | - |
| 1777598705 | 21.11° C | 55% | 1013.1 hPa | 0 mm | - | 225 W/m² | - |
| 1777597505 | 21.67° C | 57% | 1013 hPa | 0 mm | - | 302 W/m² | - |
| 1777596606 | 22.22° C | 53% | 1012.8 hPa | 0 mm | - | 355 W/m² | - |
| 1777595105 | 22.22° C | 53% | 1013 hPa | 0 mm | - | 446 W/m² | - |
| 1777594205 | 22.78° C | 53% | 1013.2 hPa | 0 mm | - | 503 W/m² | - |
| 1777593605 | 22.78° C | 52% | 1013.1 hPa | 0 mm | - | 540 W/m² | - |
| 1777592406 | 22.22° C | 52% | 1013.2 hPa | 0 mm | - | 605 W/m² | - |
* Rain latest hour (hover to see other rain measurements)
** Current wind speed in m/s (hover to see current wind gust speed)